sensor_id;sensor_type;location;lat;lon;timestamp;pressure;altitude;pressure_sealevel;temperature;humidity
65276;BME280;51875;49.994;14.052;2023-04-03T00:00:38;99063.94;;;4.45;100.00
65276;BME280;51875;49.994;14.052;2023-04-03T00:02:05;99059.56;;;4.36;100.00
65276;BME280;51875;49.994;14.052;2023-04-03T00:03:20;99056.00;;;4.23;100.00
65276;BME280;51875;49.994;14.052;2023-04-03T00:04:36;99059.22;;;3.93;100.00
65276;BME280;51875;49.994;14.052;2023-04-03T00:05:51;99058.59;;;4.22;100.00
65276;BME280;51875;49.994;14.052;2023-04-03T00:07:07;99060.31;;;4.24;100.00
65276;BME280;51875;49.994;14.052;2023-04-03T00:08:22;99066.16;;;3.94;100.00
65276;BME280;51875;49.994;14.052;2023-04-03T00:09:38;99057.53;;;3.95;100.00
65276;BME280;51875;49.994;14.052;2023-04-03T00:10:54;99060.88;;;3.85;100.00
65276;BME280;51875;49.994;14.052;2023-04-03T00:12:09;99061.13;;;4.14;100.00
65276;BME280;51875;49.994;14.052;2023-04-03T00:13:26;99058.56;;;4.17;100.00
65276;BME280;51875;49.994;14.052;2023-04-03T00:14:42;99058.59;;;4.23;100.00
65276;BME280;51875;49.994;14.052;2023-04-03T00:15:57;99064.44;;;3.99;100.00
65276;BME280;51875;49.994;14.052;2023-04-03T00:17:12;99063.75;;;4.20;100.00
65276;BME280;51875;49.994;14.052;2023-04-03T00:18:29;99061.56;;;3.66;100.00
65276;BME280;51875;49.994;14.052;2023-04-03T00:19:44;99066.28;;;4.09;100.00
65276;BME280;51875;49.994;14.052;2023-04-03T00:21:00;99065.47;;;4.18;100.00
65276;BME280;51875;49.994;14.052;2023-04-03T00:22:15;99061.09;;;4.09;100.00
65276;BME280;51875;49.994;14.052;2023-04-03T00:23:31;99064.66;;;4.24;100.00
65276;BME280;51875;49.994;14.052;2023-04-03T00:24:47;99066.81;;;3.73;100.00
65276;BME280;51875;49.994;14.052;2023-04-03T00:26:03;99073.00;;;3.89;100.00
65276;BME280;51875;49.994;14.052;2023-04-03T00:27:18;99074.00;;;4.05;100.00
65276;BME280;51875;49.994;14.052;2023-04-03T00:28:34;99068.09;;;4.21;100.00
65276;BME280;51875;49.994;14.052;2023-04-03T00:29:49;99069.91;;;4.32;100.00
65276;BME280;51875;49.994;14.052;2023-04-03T00:31:05;99065.41;;;4.09;100.00
65276;BME280;51875;49.994;14.052;2023-04-03T00:32:20;99066.41;;;4.25;100.00
65276;BME280;51875;49.994;14.052;2023-04-03T00:33:36;99076.75;;;4.23;100.00
65276;BME280;51875;49.994;14.052;2023-04-03T00:34:52;99068.13;;;4.23;100.00
65276;BME280;51875;49.994;14.052;2023-04-03T00:36:11;99068.03;;;4.12;100.00
65276;BME280;51875;49.994;14.052;2023-04-03T00:37:27;99073.97;;;3.99;100.00
65276;BME280;51875;49.994;14.052;2023-04-03T00:38:43;99071.25;;;3.86;100.00
65276;BME280;51875;49.994;14.052;2023-04-03T00:39:58;99068.28;;;3.49;100.00
65276;BME280;51875;49.994;14.052;2023-04-03T00:41:14;99057.25;;;3.68;100.00
65276;BME280;51875;49.994;14.052;2023-04-03T00:42:30;99079.97;;;3.98;100.00
65276;BME280;51875;49.994;14.052;2023-04-03T00:43:46;99065.84;;;3.63;100.00
65276;BME280;51875;49.994;14.052;2023-04-03T00:46:17;99073.22;;;4.12;100.00
65276;BME280;51875;49.994;14.052;2023-04-03T00:47:33;99068.91;;;4.16;100.00
65276;BME280;51875;49.994;14.052;2023-04-03T00:48:49;99079.91;;;3.90;100.00
65276;BME280;51875;49.994;14.052;2023-04-03T00:50:05;99070.59;;;4.10;100.00
65276;BME280;51875;49.994;14.052;2023-04-03T00:51:24;99073.97;;;4.03;100.00
65276;BME280;51875;49.994;14.052;2023-04-03T00:52:39;99065.06;;;3.73;100.00
65276;BME280;51875;49.994;14.052;2023-04-03T00:53:59;99067.09;;;4.04;100.00
65276;BME280;51875;49.994;14.052;2023-04-03T00:55:16;99078.28;;;4.00;100.00
65276;BME280;51875;49.994;14.052;2023-04-03T00:56:32;99074.88;;;4.05;100.00
65276;BME280;51875;49.994;14.052;2023-04-03T00:57:48;99076.47;;;3.89;100.00
65276;BME280;51875;49.994;14.052;2023-04-03T00:59:07;99075.69;;;4.01;100.00
65276;BME280;51875;49.994;14.052;2023-04-03T01:00:24;99070.38;;;3.86;100.00
65276;BME280;51875;49.994;14.052;2023-04-03T01:01:41;99075.59;;;3.90;100.00
65276;BME280;51875;49.994;14.052;2023-04-03T01:02:57;99076.56;;;3.99;100.00
65276;BME280;51875;49.994;14.052;2023-04-03T01:05:46;99074.78;;;3.93;100.00
65276;BME280;51875;49.994;14.052;2023-04-03T01:07:07;99077.38;;;3.98;100.00
65276;BME280;51875;49.994;14.052;2023-04-03T01:08:23;99076.53;;;3.97;100.00
65276;BME280;51875;49.994;14.052;2023-04-03T01:09:39;99085.03;;;3.84;100.00
65276;BME280;51875;49.994;14.052;2023-04-03T01:10:55;99072.66;;;3.55;100.00
65276;BME280;51875;49.994;14.052;2023-04-03T01:12:32;99080.03;;;4.02;100.00
65276;BME280;51875;49.994;14.052;2023-04-03T01:13:48;99073.97;;;4.03;100.00
65276;BME280;51875;49.994;14.052;2023-04-03T01:15:12;99073.78;;;3.78;100.00
65276;BME280;51875;49.994;14.052;2023-04-03T01:16:27;99074.47;;;3.63;100.00
65276;BME280;51875;49.994;14.052;2023-04-03T01:17:50;99078.19;;;3.90;100.00
65276;BME280;51875;49.994;14.052;2023-04-03T01:19:11;99075.50;;;3.79;100.00
65276;BME280;51875;49.994;14.052;2023-04-03T01:22:18;99083.19;;;3.70;100.00
65276;BME280;51875;49.994;14.052;2023-04-03T01:24:50;99076.63;;;4.08;100.00
65276;BME280;51875;49.994;14.052;2023-04-03T01:26:08;99079.00;;;3.85;100.00
65276;BME280;51875;49.994;14.052;2023-04-03T01:27:25;99079.97;;;3.96;100.00
65276;BME280;51875;49.994;14.052;2023-04-03T01:28:41;99076.94;;;3.49;100.00
65276;BME280;51875;49.994;14.052;2023-04-03T01:29:57;99080.56;;;3.67;100.00
65276;BME280;51875;49.994;14.052;2023-04-03T01:31:38;99086.47;;;3.53;100.00
65276;BME280;51875;49.994;14.052;2023-04-03T01:32:54;99082.88;;;3.42;100.00
65276;BME280;51875;49.994;14.052;2023-04-03T01:34:09;99091.50;;;3.41;100.00
65276;BME280;51875;49.994;14.052;2023-04-03T01:35:25;99080.53;;;3.65;100.00
65276;BME280;51875;49.994;14.052;2023-04-03T01:36:41;99085.97;;;3.10;100.00
65276;BME280;51875;49.994;14.052;2023-04-03T01:37:56;99087.78;;;3.16;100.00
65276;BME280;51875;49.994;14.052;2023-04-03T01:39:12;99093.34;;;3.51;100.00
65276;BME280;51875;49.994;14.052;2023-04-03T01:40:28;99095.13;;;3.56;100.00
65276;BME280;51875;49.994;14.052;2023-04-03T01:41:44;99094.66;;;3.15;100.00
65276;BME280;51875;49.994;14.052;2023-04-03T01:43:00;99095.16;;;2.88;100.00
65276;BME280;51875;49.994;14.052;2023-04-03T01:44:15;99095.47;;;3.11;100.00
65276;BME280;51875;49.994;14.052;2023-04-03T01:45:31;99098.53;;;2.82;100.00
65276;BME280;51875;49.994;14.052;2023-04-03T01:46:47;99100.41;;;2.94;100.00
65276;BME280;51875;49.994;14.052;2023-04-03T01:48:02;99101.22;;;2.91;100.00
65276;BME280;51875;49.994;14.052;2023-04-03T01:49:18;99103.72;;;2.82;100.00
65276;BME280;51875;49.994;14.052;2023-04-03T01:50:34;99109.06;;;2.96;100.00
65276;BME280;51875;49.994;14.052;2023-04-03T01:51:50;99109.94;;;2.98;100.00
65276;BME280;51875;49.994;14.052;2023-04-03T01:53:05;99111.25;;;2.68;100.00
65276;BME280;51875;49.994;14.052;2023-04-03T01:54:21;99120.75;;;2.69;100.00
65276;BME280;51875;49.994;14.052;2023-04-03T01:55:36;99112.22;;;2.73;100.00
65276;BME280;51875;49.994;14.052;2023-04-03T01:56:52;99118.84;;;2.57;100.00
65276;BME280;51875;49.994;14.052;2023-04-03T01:58:07;99121.63;;;2.71;100.00
65276;BME280;51875;49.994;14.052;2023-04-03T01:59:23;99125.94;;;2.71;100.00
65276;BME280;51875;49.994;14.052;2023-04-03T02:00:38;99110.97;;;2.49;100.00
65276;BME280;51875;49.994;14.052;2023-04-03T02:01:54;99124.59;;;2.39;100.00
65276;BME280;51875;49.994;14.052;2023-04-03T02:03:10;99121.31;;;2.51;100.00
65276;BME280;51875;49.994;14.052;2023-04-03T02:04:25;99118.38;;;2.28;100.00
65276;BME280;51875;49.994;14.052;2023-04-03T02:05:41;99129.69;;;2.33;100.00
65276;BME280;51875;49.994;14.052;2023-04-03T02:06:57;99125.69;;;2.53;100.00
65276;BME280;51875;49.994;14.052;2023-04-03T02:08:12;99124.88;;;2.58;100.00
65276;BME280;51875;49.994;14.052;2023-04-03T02:09:28;99125.53;;;2.43;100.00
65276;BME280;51875;49.994;14.052;2023-04-03T02:10:46;99125.88;;;2.66;100.00
65276;BME280;51875;49.994;14.052;2023-04-03T02:12:02;99133.63;;;2.12;100.00
65276;BME280;51875;49.994;14.052;2023-04-03T02:13:18;99127.59;;;2.11;100.00
65276;BME280;51875;49.994;14.052;2023-04-03T02:14:34;99137.56;;;2.40;99.79
65276;BME280;51875;49.994;14.052;2023-04-03T02:15:50;99137.31;;;2.26;100.00
65276;BME280;51875;49.994;14.052;2023-04-03T02:17:05;99145.59;;;2.07;100.00
65276;BME280;51875;49.994;14.052;2023-04-03T02:18:23;99137.09;;;2.14;100.00
65276;BME280;51875;49.994;14.052;2023-04-03T02:19:39;99144.72;;;2.06;100.00
65276;BME280;51875;49.994;14.052;2023-04-03T02:20:55;99152.47;;;2.05;100.00
65276;BME280;51875;49.994;14.052;2023-04-03T02:22:10;99149.03;;;2.07;100.00
65276;BME280;51875;49.994;14.052;2023-04-03T02:23:26;99147.63;;;1.77;100.00
65276;BME280;51875;49.994;14.052;2023-04-03T02:24:41;99145.56;;;2.05;100.00
65276;BME280;51875;49.994;14.052;2023-04-03T02:26:08;99150.88;;;1.65;100.00
65276;BME280;51875;49.994;14.052;2023-04-03T02:27:24;99144.81;;;1.65;100.00
65276;BME280;51875;49.994;14.052;2023-04-03T02:28:40;99149.66;;;1.94;100.00
65276;BME280;51875;49.994;14.052;2023-04-03T02:29:56;99147.78;;;1.83;100.00
65276;BME280;51875;49.994;14.052;2023-04-03T02:31:11;99145.47;;;2.01;100.00
65276;BME280;51875;49.994;14.052;2023-04-03T02:32:27;99141.25;;;1.58;100.00
65276;BME280;51875;49.994;14.052;2023-04-03T02:33:43;99153.97;;;1.95;100.00
65276;BME280;51875;49.994;14.052;2023-04-03T02:34:58;99155.63;;;1.90;100.00
65276;BME280;51875;49.994;14.052;2023-04-03T02:36:14;99155.00;;;2.03;100.00
65276;BME280;51875;49.994;14.052;2023-04-03T02:37:30;99150.88;;;1.65;100.00
65276;BME280;51875;49.994;14.052;2023-04-03T02:38:45;99149.00;;;1.58;100.00
65276;BME280;51875;49.994;14.052;2023-04-03T02:40:01;99151.63;;;1.60;100.00
65276;BME280;51875;49.994;14.052;2023-04-03T02:41:16;99158.38;;;2.01;97.98
65276;BME280;51875;49.994;14.052;2023-04-03T02:42:32;99155.75;;;1.97;100.00
65276;BME280;51875;49.994;14.052;2023-04-03T02:43:48;99154.94;;;2.00;100.00
65276;BME280;51875;49.994;14.052;2023-04-03T02:45:04;99156.59;;;1.96;97.65
65276;BME280;51875;49.994;14.052;2023-04-03T02:46:19;99155.47;;;1.82;100.00
65276;BME280;51875;49.994;14.052;2023-04-03T02:47:35;99154.25;;;1.61;100.00
65276;BME280;51875;49.994;14.052;2023-04-03T02:48:51;99156.88;;;1.64;100.00
65276;BME280;51875;49.994;14.052;2023-04-03T02:50:06;99156.81;;;1.63;100.00
65276;BME280;51875;49.994;14.052;2023-04-03T02:51:22;99151.31;;;1.46;100.00
65276;BME280;51875;49.994;14.052;2023-04-03T02:52:38;99150.47;;;1.45;100.00
65276;BME280;51875;49.994;14.052;2023-04-03T02:53:53;99163.56;;;1.56;97.79
65276;BME280;51875;49.994;14.052;2023-04-03T02:55:13;99160.28;;;1.63;100.00
65276;BME280;51875;49.994;14.052;2023-04-03T02:56:29;99159.16;;;1.50;100.00
65276;BME280;51875;49.994;14.052;2023-04-03T02:57:45;99163.56;;;1.56;100.00
65276;BME280;51875;49.994;14.052;2023-04-03T02:59:00;99164.13;;;1.84;99.93
65276;BME280;51875;49.994;14.052;2023-04-03T03:00:16;99165.81;;;1.82;98.11
65276;BME280;51875;49.994;14.052;2023-04-03T03:01:32;99163.44;;;1.48;100.00
65276;BME280;51875;49.994;14.052;2023-04-03T03:02:48;99157.94;;;1.33;100.00
65276;BME280;51875;49.994;14.052;2023-04-03T03:04:04;99167.19;;;1.64;97.46
65276;BME280;51875;49.994;14.052;2023-04-03T03:05:20;99166.59;;;1.79;95.31
65276;BME280;51875;49.994;14.052;2023-04-03T03:06:36;99163.13;;;1.77;95.54
65276;BME280;51875;49.994;14.052;2023-04-03T03:07:51;99163.13;;;1.76;96.08
65276;BME280;51875;49.994;14.052;2023-04-03T03:09:07;99173.41;;;1.74;98.87
65276;BME280;51875;49.994;14.052;2023-04-03T03:10:23;99171.00;;;1.83;95.90
65276;BME280;51875;49.994;14.052;2023-04-03T03:11:39;99175.38;;;1.88;94.29
65276;BME280;51875;49.994;14.052;2023-04-03T03:12:54;99165.75;;;1.79;98.92
65276;BME280;51875;49.994;14.052;2023-04-03T03:14:10;99168.78;;;1.59;99.76
65276;BME280;51875;49.994;14.052;2023-04-03T03:15:26;99169.06;;;1.29;99.10
65276;BME280;51875;49.994;14.052;2023-04-03T03:16:41;99173.63;;;1.42;100.00
65276;BME280;51875;49.994;14.052;2023-04-03T03:17:57;99172.75;;;1.40;99.91
65276;BME280;51875;49.994;14.052;2023-04-03T03:19:12;99172.22;;;1.57;98.55
65276;BME280;51875;49.994;14.052;2023-04-03T03:20:28;99175.34;;;1.41;98.61
65276;BME280;51875;49.994;14.052;2023-04-03T03:21:44;99168.13;;;1.25;100.00
65276;BME280;51875;49.994;14.052;2023-04-03T03:22:59;99176.28;;;1.45;100.00
65276;BME280;51875;49.994;14.052;2023-04-03T03:24:15;99170.78;;;1.30;97.59
65276;BME280;51875;49.994;14.052;2023-04-03T03:25:31;99171.06;;;1.42;100.00
65276;BME280;51875;49.994;14.052;2023-04-03T03:26:46;99169.16;;;1.35;99.05
65276;BME280;51875;49.994;14.052;2023-04-03T03:28:02;99173.78;;;1.10;100.00
65276;BME280;51875;49.994;14.052;2023-04-03T03:29:17;99174.69;;;1.10;100.00
65276;BME280;51875;49.994;14.052;2023-04-03T03:30:33;99174.75;;;1.13;100.00
65276;BME280;51875;49.994;14.052;2023-04-03T03:31:48;99182.00;;;1.32;100.00
65276;BME280;51875;49.994;14.052;2023-04-03T03:33:04;99178.75;;;1.40;98.27
65276;BME280;51875;49.994;14.052;2023-04-03T03:34:20;99180.78;;;1.14;100.00
65276;BME280;51875;49.994;14.052;2023-04-03T03:35:35;99184.59;;;1.32;98.38
65276;BME280;51875;49.994;14.052;2023-04-03T03:36:51;99180.38;;;1.37;100.00
65276;BME280;51875;49.994;14.052;2023-04-03T03:38:07;99191.00;;;1.09;99.50
65276;BME280;51875;49.994;14.052;2023-04-03T03:39:22;99181.31;;;0.99;100.00
65276;BME280;51875;49.994;14.052;2023-04-03T03:40:38;99187.75;;;1.18;100.00
65276;BME280;51875;49.994;14.052;2023-04-03T03:41:53;99182.25;;;1.03;100.00
65276;BME280;51875;49.994;14.052;2023-04-03T03:43:09;99192.16;;;1.24;99.13
65276;BME280;51875;49.994;14.052;2023-04-03T03:44:24;99189.47;;;0.79;100.00
65276;BME280;51875;49.994;14.052;2023-04-03T03:45:40;99185.44;;;0.92;100.00
65276;BME280;51875;49.994;14.052;2023-04-03T03:46:56;99201.75;;;0.91;100.00
65276;BME280;51875;49.994;14.052;2023-04-03T03:48:11;99198.22;;;0.88;100.00
65276;BME280;51875;49.994;14.052;2023-04-03T03:49:27;99197.47;;;0.92;100.00
65276;BME280;51875;49.994;14.052;2023-04-03T03:50:43;99194.50;;;0.75;100.00
65276;BME280;51875;49.994;14.052;2023-04-03T03:51:58;99189.09;;;1.01;100.00
65276;BME280;51875;49.994;14.052;2023-04-03T03:53:14;99197.97;;;0.77;100.00
65276;BME280;51875;49.994;14.052;2023-04-03T03:54:30;99197.69;;;0.64;100.00
65276;BME280;51875;49.994;14.052;2023-04-03T03:55:46;99205.59;;;0.72;100.00
65276;BME280;51875;49.994;14.052;2023-04-03T03:57:01;99206.13;;;0.59;100.00
65276;BME280;51875;49.994;14.052;2023-04-03T03:58:17;99202.97;;;0.69;100.00
65276;BME280;51875;49.994;14.052;2023-04-03T03:59:32;99206.56;;;0.76;100.00
65276;BME280;51875;49.994;14.052;2023-04-03T04:00:48;99205.00;;;0.47;100.00
65276;BME280;51875;49.994;14.052;2023-04-03T04:02:03;99201.56;;;0.47;100.00
65276;BME280;51875;49.994;14.052;2023-04-03T04:03:19;99208.03;;;0.66;100.00
65276;BME280;51875;49.994;14.052;2023-04-03T04:04:36;99202.28;;;0.41;100.00
65276;BME280;51875;49.994;14.052;2023-04-03T04:05:52;99203.91;;;0.37;100.00
65276;BME280;51875;49.994;14.052;2023-04-03T04:07:08;99203.75;;;0.31;100.00
65276;BME280;51875;49.994;14.052;2023-04-03T04:08:23;99203.31;;;0.48;100.00
65276;BME280;51875;49.994;14.052;2023-04-03T04:09:39;99201.84;;;0.24;100.00
65276;BME280;51875;49.994;14.052;2023-04-03T04:10:55;99205.50;;;0.32;100.00
65276;BME280;51875;49.994;14.052;2023-04-03T04:12:11;99204.34;;;0.21;100.00
65276;BME280;51875;49.994;14.052;2023-04-03T04:13:26;99209.09;;;0.39;100.00
65276;BME280;51875;49.994;14.052;2023-04-03T04:14:42;99212.97;;;0.23;100.00
65276;BME280;51875;49.994;14.052;2023-04-03T04:15:58;99211.31;;;0.25;100.00
65276;BME280;51875;49.994;14.052;2023-04-03T04:17:14;99208.91;;;0.33;100.00
65276;BME280;51875;49.994;14.052;2023-04-03T04:18:30;99207.47;;;0.43;100.00
65276;BME280;51875;49.994;14.052;2023-04-03T04:19:45;99210.31;;;0.20;100.00
65276;BME280;51875;49.994;14.052;2023-04-03T04:21:01;99212.22;;;0.27;100.00
65276;BME280;51875;49.994;14.052;2023-04-03T04:22:17;99204.00;;;0.08;100.00
65276;BME280;51875;49.994;14.052;2023-04-03T04:23:32;99211.72;;;0.08;100.00
65276;BME280;51875;49.994;14.052;2023-04-03T04:24:48;99214.75;;;0.25;100.00
65276;BME280;51875;49.994;14.052;2023-04-03T04:26:03;99222.88;;;0.07;100.00
65276;BME280;51875;49.994;14.052;2023-04-03T04:27:19;99221.41;;;0.17;100.00
65276;BME280;51875;49.994;14.052;2023-04-03T04:28:34;99215.34;;;0.15;100.00
65276;BME280;51875;49.994;14.052;2023-04-03T04:29:50;99220.34;;;0.43;100.00
65276;BME280;51875;49.994;14.052;2023-04-03T04:31:06;99225.41;;;0.39;100.00
65276;BME280;51875;49.994;14.052;2023-04-03T04:32:21;99218.06;;;0.20;100.00
65276;BME280;51875;49.994;14.052;2023-04-03T04:33:37;99213.81;;;0.22;100.00
65276;BME280;51875;49.994;14.052;2023-04-03T04:34:52;99220.75;;;0.24;100.00
65276;BME280;51875;49.994;14.052;2023-04-03T04:36:08;99222.69;;;0.33;100.00
65276;BME280;51875;49.994;14.052;2023-04-03T04:37:23;99231.00;;;0.23;100.00
65276;BME280;51875;49.994;14.052;2023-04-03T04:38:39;99221.91;;;0.04;100.00
65276;BME280;51875;49.994;14.052;2023-04-03T04:39:54;99205.59;;;0.03;100.00
65276;BME280;51875;49.994;14.052;2023-04-03T04:41:10;99226.94;;;0.31;100.00
65276;BME280;51875;49.994;14.052;2023-04-03T04:42:26;99227.66;;;0.25;100.00
65276;BME280;51875;49.994;14.052;2023-04-03T04:43:41;99228.69;;;0.32;100.00
65276;BME280;51875;49.994;14.052;2023-04-03T04:44:57;99234.47;;;0.25;100.00
65276;BME280;51875;49.994;14.052;2023-04-03T04:46:12;99233.81;;;0.32;100.00
65276;BME280;51875;49.994;14.052;2023-04-03T04:47:29;99237.25;;;0.33;100.00
65276;BME280;51875;49.994;14.052;2023-04-03T04:48:45;99236.31;;;-0.03;100.00
65276;BME280;51875;49.994;14.052;2023-04-03T04:50:00;99241.03;;;0.12;100.00
65276;BME280;51875;49.994;14.052;2023-04-03T04:51:16;99231.84;;;0.22;100.00
65276;BME280;51875;49.994;14.052;2023-04-03T04:52:32;99241.78;;;0.08;100.00
65276;BME280;51875;49.994;14.052;2023-04-03T04:53:47;99245.69;;;-0.07;100.00
65276;BME280;51875;49.994;14.052;2023-04-03T04:55:03;99245.28;;;0.11;100.00
65276;BME280;51875;49.994;14.052;2023-04-03T04:56:19;99243.94;;;0.24;100.00
65276;BME280;51875;49.994;14.052;2023-04-03T04:57:36;99247.13;;;0.16;100.00
65276;BME280;51875;49.994;14.052;2023-04-03T04:58:52;99243.03;;;0.24;100.00
65276;BME280;51875;49.994;14.052;2023-04-03T05:00:08;99244.34;;;0.08;100.00
65276;BME280;51875;49.994;14.052;2023-04-03T05:01:23;99247.16;;;0.17;100.00
65276;BME280;51875;49.994;14.052;2023-04-03T05:02:39;99246.00;;;0.39;100.00
65276;BME280;51875;49.994;14.052;2023-04-03T05:03:55;99253.59;;;0.33;100.00
65276;BME280;51875;49.994;14.052;2023-04-03T05:05:10;99252.25;;;0.48;100.00
65276;BME280;51875;49.994;14.052;2023-04-03T05:06:26;99251.84;;;0.32;100.00
65276;BME280;51875;49.994;14.052;2023-04-03T05:07:42;99248.06;;;0.19;100.00
65276;BME280;51875;49.994;14.052;2023-04-03T05:08:57;99249.94;;;0.25;100.00
65276;BME280;51875;49.994;14.052;2023-04-03T05:10:13;99248.94;;;0.20;100.00
65276;BME280;51875;49.994;14.052;2023-04-03T05:11:29;99255.16;;;-0.04;100.00
65276;BME280;51875;49.994;14.052;2023-04-03T05:12:45;99244.00;;;-0.05;100.00
65276;BME280;51875;49.994;14.052;2023-04-03T05:14:00;99253.13;;;0.16;100.00
65276;BME280;51875;49.994;14.052;2023-04-03T05:15:16;99251.41;;;0.15;100.00
65276;BME280;51875;49.994;14.052;2023-04-03T05:16:32;99253.41;;;0.25;100.00
65276;BME280;51875;49.994;14.052;2023-04-03T05:17:48;99254.09;;;0.20;100.00
65276;BME280;51875;49.994;14.052;2023-04-03T05:19:04;99254.19;;;0.23;100.00
65276;BME280;51875;49.994;14.052;2023-04-03T05:20:20;99265.06;;;0.12;100.00
65276;BME280;51875;49.994;14.052;2023-04-03T05:21:36;99264.69;;;-0.02;100.00
65276;BME280;51875;49.994;14.052;2023-04-03T05:22:51;99261.81;;;0.20;100.00
65276;BME280;51875;49.994;14.052;2023-04-03T05:24:07;99265.38;;;0.23;100.00
65276;BME280;51875;49.994;14.052;2023-04-03T05:25:24;99261.69;;;0.15;100.00
65276;BME280;51875;49.994;14.052;2023-04-03T05:26:40;99268.59;;;0.16;100.00
65276;BME280;51875;49.994;14.052;2023-04-03T05:27:56;99270.75;;;0.33;100.00
65276;BME280;51875;49.994;14.052;2023-04-03T05:29:11;99267.72;;;0.16;100.00
65276;BME280;51875;49.994;14.052;2023-04-03T05:30:27;99273.38;;;0.02;100.00
65276;BME280;51875;49.994;14.052;2023-04-03T05:31:42;99283.00;;;0.09;100.00
65276;BME280;51875;49.994;14.052;2023-04-03T05:32:59;99280.53;;;0.45;100.00
65276;BME280;51875;49.994;14.052;2023-04-03T05:34:15;99275.75;;;0.60;100.00
65276;BME280;51875;49.994;14.052;2023-04-03T05:35:30;99273.94;;;0.22;100.00
65276;BME280;51875;49.994;14.052;2023-04-03T05:36:46;99271.97;;;0.46;100.00
65276;BME280;51875;49.994;14.052;2023-04-03T05:38:01;99271.00;;;0.42;100.00
65276;BME280;51875;49.994;14.052;2023-04-03T05:39:17;99282.69;;;0.63;100.00
65276;BME280;51875;49.994;14.052;2023-04-03T05:40:32;99278.72;;;0.42;100.00
65276;BME280;51875;49.994;14.052;2023-04-03T05:41:48;99276.47;;;0.54;100.00
65276;BME280;51875;49.994;14.052;2023-04-03T05:43:04;99274.03;;;0.61;100.00
65276;BME280;51875;49.994;14.052;2023-04-03T05:44:19;99288.44;;;0.52;100.00
65276;BME280;51875;49.994;14.052;2023-04-03T05:45:35;99279.00;;;0.87;100.00
65276;BME280;51875;49.994;14.052;2023-04-03T05:46:51;99279.91;;;0.55;100.00
65276;BME280;51875;49.994;14.052;2023-04-03T05:48:06;99272.22;;;0.90;100.00
65276;BME280;51875;49.994;14.052;2023-04-03T05:49:22;99287.53;;;0.84;100.00
65276;BME280;51875;49.994;14.052;2023-04-03T05:50:37;99284.00;;;0.47;100.00
65276;BME280;51875;49.994;14.052;2023-04-03T05:51:56;99274.44;;;0.76;100.00
65276;BME280;51875;49.994;14.052;2023-04-03T05:53:20;99280.91;;;0.60;100.00
65276;BME280;51875;49.994;14.052;2023-04-03T05:54:36;99284.66;;;0.72;100.00
65276;BME280;51875;49.994;14.052;2023-04-03T05:55:52;99278.97;;;0.51;100.00
65276;BME280;51875;49.994;14.052;2023-04-03T05:57:09;99283.78;;;1.08;100.00
65276;BME280;51875;49.994;14.052;2023-04-03T05:58:24;99292.13;;;0.62;100.00
65276;BME280;51875;49.994;14.052;2023-04-03T05:59:40;99289.44;;;0.58;100.00
65276;BME280;51875;49.994;14.052;2023-04-03T06:00:56;99280.84;;;0.57;100.00
65276;BME280;51875;49.994;14.052;2023-04-03T06:02:14;99284.06;;;0.83;100.00
65276;BME280;51875;49.994;14.052;2023-04-03T06:03:30;99283.34;;;0.89;100.00
65276;BME280;51875;49.994;14.052;2023-04-03T06:04:46;99289.13;;;1.14;100.00
65276;BME280;51875;49.994;14.052;2023-04-03T06:06:04;99292.00;;;0.91;100.00
65276;BME280;51875;49.994;14.052;2023-04-03T06:07:22;99287.78;;;0.95;100.00
65276;BME280;51875;49.994;14.052;2023-04-03T06:08:38;99288.88;;;1.05;100.00
65276;BME280;51875;49.994;14.052;2023-04-03T06:09:55;99288.47;;;1.24;100.00
65276;BME280;51875;49.994;14.052;2023-04-03T06:11:11;99293.53;;;0.84;100.00
65276;BME280;51875;49.994;14.052;2023-04-03T06:12:27;99295.09;;;0.78;100.00
65276;BME280;51875;49.994;14.052;2023-04-03T06:13:44;99293.28;;;0.74;100.00
65276;BME280;51875;49.994;14.052;2023-04-03T06:15:00;99291.41;;;1.02;100.00
65276;BME280;51875;49.994;14.052;2023-04-03T06:16:17;99298.41;;;1.07;100.00
65276;BME280;51875;49.994;14.052;2023-04-03T06:17:32;99300.94;;;1.06;100.00
65276;BME280;51875;49.994;14.052;2023-04-03T06:18:48;99301.09;;;1.12;100.00
65276;BME280;51875;49.994;14.052;2023-04-03T06:20:04;99299.59;;;0.87;100.00
65276;BME280;51875;49.994;14.052;2023-04-03T06:21:20;99297.19;;;0.93;100.00
65276;BME280;51875;49.994;14.052;2023-04-03T06:22:35;99312.97;;;1.05;100.00
65276;BME280;51875;49.994;14.052;2023-04-03T06:23:52;99305.97;;;1.00;100.00
65276;BME280;51875;49.994;14.052;2023-04-03T06:25:08;99311.84;;;1.31;100.00
65276;BME280;51875;49.994;14.052;2023-04-03T06:26:24;99316.28;;;1.36;100.00
65276;BME280;51875;49.994;14.052;2023-04-03T06:27:40;99309.28;;;1.32;100.00
65276;BME280;51875;49.994;14.052;2023-04-03T06:28:55;99314.59;;;1.02;100.00
65276;BME280;51875;49.994;14.052;2023-04-03T06:30:11;99312.13;;;1.06;100.00
65276;BME280;51875;49.994;14.052;2023-04-03T06:31:27;99317.13;;;0.98;100.00
65276;BME280;51875;49.994;14.052;2023-04-03T06:32:43;99308.94;;;0.81;100.00
65276;BME280;51875;49.994;14.052;2023-04-03T06:33:58;99318.63;;;0.90;100.00
65276;BME280;51875;49.994;14.052;2023-04-03T06:35:15;99313.31;;;0.84;100.00
65276;BME280;51875;49.994;14.052;2023-04-03T06:36:31;99325.59;;;1.31;100.00
65276;BME280;51875;49.994;14.052;2023-04-03T06:37:47;99322.47;;;1.08;100.00
65276;BME280;51875;49.994;14.052;2023-04-03T06:39:03;99316.81;;;0.86;100.00
65276;BME280;51875;49.994;14.052;2023-04-03T06:40:22;99314.25;;;1.24;100.00
65276;BME280;51875;49.994;14.052;2023-04-03T06:41:38;99325.28;;;1.17;100.00
65276;BME280;51875;49.994;14.052;2023-04-03T06:42:54;99323.19;;;1.01;100.00
65276;BME280;51875;49.994;14.052;2023-04-03T06:44:10;99330.88;;;1.36;100.00